createdAt,value
2019-04-06T00:00:07.028Z,35.80
2019-04-06T00:00:45.603Z,35.77
2019-04-06T00:01:27.105Z,34.57
2019-04-06T00:02:06.263Z,33.83
2019-04-06T00:02:41.823Z,34.17
2019-04-06T00:03:17.665Z,35.20
2019-04-06T00:03:53.610Z,34.83
2019-04-06T00:04:29.420Z,37.23
2019-04-06T00:05:05.202Z,35.27
2019-04-06T00:05:40.651Z,35.67
2019-04-06T00:06:16.067Z,35.87
2019-04-06T00:06:51.888Z,35.20
2019-04-06T00:07:27.361Z,35.43
2019-04-06T00:08:02.915Z,36.90
2019-04-06T00:08:38.453Z,34.70
2019-04-06T00:09:14.018Z,35.27
2019-04-06T00:09:49.456Z,36.10
2019-04-06T00:10:24.936Z,36.33
2019-04-06T00:11:00.725Z,34.00
2019-04-06T00:11:36.164Z,35.33
2019-04-06T00:12:11.590Z,34.13
2019-04-06T00:12:47.094Z,35.60
2019-04-06T00:13:22.531Z,35.87
2019-04-06T00:13:58.118Z,34.23
2019-04-06T00:14:33.593Z,35.30
2019-04-06T00:15:09.227Z,34.77
2019-04-06T00:15:44.691Z,33.83
2019-04-06T00:16:20.128Z,34.43
2019-04-06T00:16:55.608Z,34.53
2019-04-06T00:17:31.384Z,34.43
2019-04-06T00:18:06.820Z,34.63
2019-04-06T00:18:42.262Z,36.17
2019-04-06T00:19:17.788Z,36.27
2019-04-06T00:19:53.239Z,35.27
2019-04-06T00:20:28.732Z,33.73
2019-04-06T00:21:04.926Z,36.80
2019-04-06T00:21:40.662Z,35.73
2019-04-06T00:22:16.077Z,33.20
2019-04-06T00:22:51.532Z,33.37
2019-04-06T00:23:27.344Z,35.10
2019-04-06T00:24:02.807Z,36.13
2019-04-06T00:24:38.221Z,35.20
2019-04-06T00:25:14.014Z,34.50
2019-04-06T00:25:49.638Z,35.00
2019-04-06T00:26:25.106Z,34.80
2019-04-06T00:27:01.301Z,34.73
2019-04-06T00:27:36.720Z,33.17
2019-04-06T00:28:12.177Z,33.90
2019-04-06T00:28:47.694Z,35.03
2019-04-06T00:29:23.449Z,35.03
2019-04-06T00:29:58.920Z,34.97
2019-04-06T00:30:43.078Z,34.33
2019-04-06T00:31:26.552Z,34.13
2019-04-06T00:32:06.328Z,34.00
2019-04-06T00:32:47.021Z,33.23
2019-04-06T00:33:22.438Z,33.23
2019-04-06T00:33:57.945Z,34.67
2019-04-06T00:34:33.456Z,33.83
2019-04-06T00:35:08.981Z,33.70
2019-04-06T00:35:44.424Z,35.53
2019-04-06T00:36:19.968Z,33.87
2019-04-06T00:36:55.579Z,35.43
2019-04-06T00:37:31.365Z,35.80
2019-04-06T00:38:07.374Z,35.53
2019-04-06T00:38:43.129Z,34.07
2019-04-06T00:39:18.550Z,35.23
2019-04-06T00:39:54.034Z,35.53
2019-04-06T00:40:29.514Z,35.13
2019-04-06T00:41:05.376Z,35.13
2019-04-06T00:41:40.818Z,35.97
2019-04-06T00:42:16.258Z,35.57
2019-04-06T00:42:51.687Z,35.23
2019-04-06T00:43:27.172Z,34.10
2019-04-06T00:44:02.710Z,33.60
2019-04-06T00:44:38.606Z,34.90
2019-04-06T00:45:14.127Z,33.80
2019-04-06T00:45:49.563Z,35.13
2019-04-06T00:46:25.055Z,33.00
2019-04-06T00:47:00.533Z,34.83
2019-04-06T00:47:35.932Z,34.33
2019-04-06T00:48:11.355Z,33.23
2019-04-06T00:48:46.863Z,33.77
2019-04-06T00:49:22.308Z,33.57
2019-04-06T00:49:57.785Z,33.10
2019-04-06T00:50:33.252Z,32.47
2019-04-06T00:51:08.649Z,34.10
2019-04-06T00:51:44.157Z,33.57
2019-04-06T00:52:19.979Z,33.77
2019-04-06T00:52:55.471Z,33.17
2019-04-06T00:53:31.347Z,35.47
2019-04-06T00:54:06.783Z,34.37
2019-04-06T00:54:42.219Z,34.30
2019-04-06T00:55:17.639Z,34.80
2019-04-06T00:55:55.966Z,34.03
2019-04-06T00:56:30.350Z,35.20
2019-04-06T00:57:06.061Z,33.20
2019-04-06T00:57:41.468Z,34.80
2019-04-06T00:58:16.955Z,34.20
2019-04-06T00:58:52.376Z,35.13
2019-04-06T00:59:27.813Z,34.67
2019-04-06T01:00:03.257Z,32.57
2019-04-06T01:00:38.691Z,34.90
2019-04-06T01:01:14.342Z,34.53
2019-04-06T01:01:49.776Z,34.10
2019-04-06T01:02:25.259Z,35.30
2019-04-06T01:03:00.782Z,35.20
2019-04-06T01:03:36.647Z,34.03
2019-04-06T01:04:12.074Z,32.93
2019-04-06T01:04:47.513Z,33.40
2019-04-06T01:05:22.976Z,32.63
2019-04-06T01:05:58.563Z,33.60
2019-04-06T01:06:34.371Z,32.70
2019-04-06T01:07:09.788Z,32.97
2019-04-06T01:07:45.187Z,35.07
2019-04-06T01:08:21.345Z,34.00
2019-04-06T01:08:56.806Z,33.53
2019-04-06T01:09:32.298Z,33.37
2019-04-06T01:10:07.817Z,33.30
2019-04-06T01:10:43.592Z,34.47
2019-04-06T01:11:19.330Z,34.23
2019-04-06T01:11:54.821Z,32.93
2019-04-06T01:12:30.279Z,34.13
2019-04-06T01:13:05.708Z,33.27
2019-04-06T01:13:41.214Z,34.10
2019-04-06T01:14:16.659Z,35.33
2019-04-06T01:14:52.692Z,34.40
2019-04-06T01:15:28.558Z,34.13
2019-04-06T01:16:04.089Z,35.13
2019-04-06T01:16:39.577Z,35.00
2019-04-06T01:17:15.040Z,34.10
2019-04-06T01:17:50.985Z,35.20
2019-04-06T01:18:26.788Z,35.20
2019-04-06T01:19:02.328Z,35.60
2019-04-06T01:19:37.740Z,34.50
2019-04-06T01:20:13.493Z,34.97
2019-04-06T01:20:48.921Z,34.77
2019-04-06T01:21:24.502Z,35.90
2019-04-06T01:22:00.316Z,34.10
2019-04-06T01:22:35.766Z,33.97
2019-04-06T01:23:11.226Z,35.43
2019-04-06T01:23:47.094Z,35.07
2019-04-06T01:24:22.534Z,33.70
2019-04-06T01:24:58.030Z,35.90
2019-04-06T01:25:33.585Z,35.77
2019-04-06T01:26:09.456Z,34.53
2019-04-06T01:26:45.240Z,34.77
2019-04-06T01:27:20.730Z,34.13
2019-04-06T01:27:56.229Z,35.80
2019-04-06T01:28:32.068Z,35.23
2019-04-06T01:29:07.636Z,34.27
2019-04-06T01:29:43.016Z,34.17
2019-04-06T01:30:18.574Z,35.27
2019-04-06T01:30:54.389Z,35.13
2019-04-06T01:31:29.879Z,34.63
2019-04-06T01:32:05.653Z,35.47
2019-04-06T01:32:41.455Z,34.87
2019-04-06T01:33:16.826Z,34.13
2019-04-06T01:33:52.412Z,34.37
2019-04-06T01:34:27.823Z,35.07
2019-04-06T01:35:03.237Z,34.40
2019-04-06T01:35:38.660Z,35.10
2019-04-06T01:36:14.433Z,33.57
2019-04-06T01:36:49.882Z,33.70
2019-04-06T01:37:25.325Z,33.43
2019-04-06T01:38:00.805Z,33.93
2019-04-06T01:38:36.224Z,35.57
2019-04-06T01:39:11.642Z,35.40
2019-04-06T01:39:47.062Z,34.93
2019-04-06T01:40:22.865Z,33.73
2019-04-06T01:40:58.350Z,33.27
2019-04-06T01:41:33.768Z,33.43
2019-04-06T01:42:09.245Z,35.17
2019-04-06T01:42:44.685Z,35.47
2019-04-06T01:43:20.119Z,35.90
2019-04-06T01:43:55.973Z,36.03
2019-04-06T01:44:31.842Z,35.00
2019-04-06T01:45:07.925Z,33.70
2019-04-06T01:45:43.444Z,35.03
2019-04-06T01:46:19.247Z,35.97
2019-04-06T01:46:54.917Z,35.37
2019-04-06T01:47:30.388Z,35.53
2019-04-06T01:48:06.152Z,34.47
2019-04-06T01:48:41.658Z,34.10
2019-04-06T01:49:17.764Z,34.20
2019-04-06T01:49:53.283Z,35.57
2019-04-06T01:50:28.732Z,34.90
2019-04-06T01:51:04.216Z,35.00
2019-04-06T01:51:39.689Z,34.37
2019-04-06T01:52:15.122Z,34.23
2019-04-06T01:52:51.272Z,34.97
2019-04-06T01:53:27.008Z,33.07
2019-04-06T01:54:03.161Z,35.43
2019-04-06T01:54:39.298Z,34.37
2019-04-06T01:55:15.467Z,33.77
2019-04-06T01:55:50.956Z,32.87
2019-04-06T01:56:26.616Z,31.53
2019-04-06T01:57:02.387Z,32.90
2019-04-06T01:57:37.808Z,33.43
2019-04-06T01:58:13.263Z,33.10
2019-04-06T01:58:48.678Z,33.00
2019-04-06T01:59:24.325Z,31.60
2019-04-06T01:59:59.844Z,31.90
2019-04-06T02:00:35.927Z,30.70
2019-04-06T02:01:36.852Z,31.60
2019-04-06T02:02:26.064Z,29.90
2019-04-06T02:03:01.872Z,30.67
2019-04-06T02:03:37.300Z,31.07
2019-04-06T02:04:12.745Z,32.50
2019-04-06T02:04:48.447Z,30.20
2019-04-06T02:05:24.012Z,30.27
2019-04-06T02:05:59.520Z,32.00
2019-04-06T02:06:34.977Z,31.67
2019-04-06T02:07:10.753Z,31.83
2019-04-06T02:07:46.193Z,31.87
2019-04-06T02:08:21.625Z,32.03
2019-04-06T02:08:57.115Z,31.03
2019-04-06T02:09:32.834Z,31.40
2019-04-06T02:10:08.469Z,32.73
2019-04-06T02:10:43.879Z,31.90
2019-04-06T02:11:19.367Z,31.77
2019-04-06T02:11:55.725Z,31.93
2019-04-06T02:12:31.277Z,31.67
2019-04-06T02:13:06.982Z,32.03
2019-04-06T02:13:42.426Z,33.80
2019-04-06T02:14:17.841Z,32.67
2019-04-06T02:14:53.571Z,31.33
2019-04-06T02:15:29.215Z,31.53
2019-04-06T02:16:04.887Z,32.10
2019-04-06T02:16:40.517Z,31.60
2019-04-06T02:17:16.412Z,33.00
2019-04-06T02:17:51.790Z,32.40
2019-04-06T02:18:27.235Z,32.07
2019-04-06T02:19:03.276Z,32.57
2019-04-06T02:19:38.648Z,32.97
2019-04-06T02:20:14.647Z,32.67
2019-04-06T02:20:50.391Z,31.97
2019-04-06T02:21:26.157Z,32.43
2019-04-06T02:22:01.637Z,31.37
2019-04-06T02:22:37.076Z,30.47
2019-04-06T02:23:12.500Z,31.80
2019-04-06T02:23:48.501Z,30.57
2019-04-06T02:24:24.812Z,30.83
2019-04-06T02:25:00.454Z,31.77
2019-04-06T02:25:35.997Z,32.70
2019-04-06T02:26:11.429Z,30.40
2019-04-06T02:26:46.839Z,30.37
2019-04-06T02:27:22.299Z,31.43
2019-04-06T02:27:57.819Z,34.23
2019-04-06T02:28:33.651Z,33.10
2019-04-06T02:29:09.099Z,31.50
2019-04-06T02:29:45.525Z,32.23
2019-04-06T02:30:25.270Z,31.03
2019-04-06T02:31:13.316Z,31.30
2019-04-06T02:32:08.238Z,31.50
2019-04-06T02:33:05.638Z,29.70
2019-04-06T02:34:15.674Z,28.00
2019-04-06T02:35:16.264Z,28.03
2019-04-06T02:36:09.266Z,29.73
2019-04-06T02:37:02.567Z,30.03
2019-04-06T02:38:15.165Z,29.70
2019-04-06T02:38:58.482Z,29.03
2019-04-06T02:39:49.876Z,29.83
2019-04-06T02:40:39.698Z,29.83
2019-04-06T02:41:49.612Z,30.70
2019-04-06T02:42:29.993Z,29.73
2019-04-06T02:43:11.840Z,30.37
2019-04-06T02:43:47.571Z,30.87
2019-04-06T02:44:23.044Z,31.53
2019-04-06T02:44:58.579Z,30.40
2019-04-06T02:45:34.002Z,31.50
2019-04-06T02:46:09.472Z,30.60
2019-04-06T02:46:44.873Z,33.00
2019-04-06T02:47:20.396Z,31.73
2019-04-06T02:47:56.235Z,32.07
2019-04-06T02:48:32.077Z,30.87
2019-04-06T02:49:07.522Z,32.73
2019-04-06T02:49:42.952Z,30.63
2019-04-06T02:50:18.380Z,31.83
2019-04-06T02:50:53.887Z,30.00
2019-04-06T02:51:29.597Z,30.53
2019-04-06T02:52:05.075Z,30.90
2019-04-06T02:52:40.541Z,32.40
2019-04-06T02:53:16.045Z,31.43
2019-04-06T02:53:51.475Z,31.10
2019-04-06T02:54:27.267Z,31.80
2019-04-06T02:55:02.748Z,30.30
2019-04-06T02:55:38.418Z,31.97
2019-04-06T02:56:13.968Z,29.93
2019-04-06T02:56:49.678Z,32.13
2019-04-06T02:57:25.578Z,30.30
2019-04-06T02:58:01.066Z,30.80
2019-04-06T02:58:36.471Z,31.77
2019-04-06T02:59:12.963Z,31.57
2019-04-06T02:59:48.503Z,30.13
2019-04-06T03:00:23.984Z,31.00
2019-04-06T03:00:59.870Z,29.40
2019-04-06T03:01:35.709Z,31.90
2019-04-06T03:02:11.534Z,30.30
2019-04-06T03:02:47.114Z,30.33
2019-04-06T03:03:22.946Z,30.23
2019-04-06T03:03:59.313Z,29.87
2019-04-06T03:04:35.006Z,33.40
2019-04-06T03:05:10.541Z,32.00
2019-04-06T03:05:45.972Z,30.23
2019-04-06T03:06:21.947Z,31.30
2019-04-06T03:06:57.591Z,31.33
2019-04-06T03:07:33.193Z,31.47
2019-04-06T03:08:08.691Z,29.97
2019-04-06T03:08:44.099Z,30.83
2019-04-06T03:09:20.145Z,30.60
2019-04-06T03:09:56.050Z,30.93
2019-04-06T03:10:31.543Z,30.83
2019-04-06T03:11:07.793Z,31.70
2019-04-06T03:11:43.293Z,32.13
2019-04-06T03:12:18.736Z,31.03
2019-04-06T03:12:54.324Z,31.47
2019-04-06T03:13:30.246Z,31.23
2019-04-06T03:14:05.766Z,31.67
2019-04-06T03:14:44.199Z,29.70
2019-04-06T03:15:18.316Z,31.93
2019-04-06T03:15:53.785Z,30.70
2019-04-06T03:16:29.328Z,30.90
2019-04-06T03:17:04.749Z,31.27
2019-04-06T03:17:40.222Z,30.67
2019-04-06T03:18:15.734Z,31.33
2019-04-06T03:18:51.164Z,31.40
2019-04-06T03:19:26.632Z,32.53
2019-04-06T03:20:02.108Z,31.63
2019-04-06T03:20:37.680Z,30.17
2019-04-06T03:21:13.633Z,32.83
2019-04-06T03:21:49.053Z,31.20
2019-04-06T03:22:24.855Z,32.13
2019-04-06T03:23:00.424Z,31.23
2019-04-06T03:23:49.595Z,32.03
2019-04-06T03:24:12.988Z,32.87
2019-04-06T03:24:48.411Z,31.70
2019-04-06T03:25:23.869Z,32.30
2019-04-06T03:25:59.891Z,31.70
2019-04-06T03:26:35.752Z,33.63
2019-04-06T03:27:11.173Z,33.90
2019-04-06T03:27:46.648Z,32.60
2019-04-06T03:28:22.075Z,33.07
2019-04-06T03:28:58.746Z,32.37
2019-04-06T03:29:34.169Z,33.90
2019-04-06T03:30:09.781Z,31.27
2019-04-06T03:30:45.799Z,32.67
2019-04-06T03:31:25.150Z,33.63
2019-04-06T03:32:00.186Z,33.40
2019-04-06T03:32:35.932Z,33.97
2019-04-06T03:33:11.473Z,33.70
2019-04-06T03:33:46.901Z,33.10
2019-04-06T03:34:23.095Z,35.40
2019-04-06T03:34:59.464Z,32.80
2019-04-06T03:35:35.288Z,34.80
2019-04-06T03:36:11.184Z,33.33
2019-04-06T03:36:47.190Z,34.40
2019-04-06T03:37:22.967Z,34.40
2019-04-06T03:37:58.459Z,36.67
2019-04-06T03:38:33.887Z,33.90
2019-04-06T03:39:09.307Z,34.00
2019-04-06T03:39:44.733Z,34.57
2019-04-06T03:40:20.169Z,34.70
2019-04-06T03:40:56.072Z,33.63
2019-04-06T03:41:31.512Z,32.37
2019-04-06T03:42:10.363Z,32.17
2019-04-06T03:42:44.649Z,31.47
2019-04-06T03:43:20.440Z,32.63
2019-04-06T03:43:56.103Z,34.43
2019-04-06T03:44:31.537Z,32.37
2019-04-06T03:45:07.682Z,32.40
2019-04-06T03:45:43.127Z,32.63
2019-04-06T03:46:18.552Z,32.13
2019-04-06T03:46:54.013Z,32.30
2019-04-06T03:47:29.464Z,32.53
2019-04-06T03:48:04.948Z,32.70
2019-04-06T03:48:40.366Z,32.07
2019-04-06T03:49:15.760Z,32.03
2019-04-06T03:49:51.590Z,31.60
2019-04-06T03:50:27.428Z,32.73
2019-04-06T03:51:02.873Z,31.80
2019-04-06T03:51:38.468Z,32.00
2019-04-06T03:52:14.424Z,32.40
2019-04-06T03:52:49.850Z,32.40
2019-04-06T03:53:25.323Z,32.20
2019-04-06T03:54:00.872Z,33.87
2019-04-06T03:54:36.594Z,31.43
2019-04-06T03:55:12.317Z,32.17
2019-04-06T03:55:47.927Z,32.27
2019-04-06T03:56:24.033Z,31.80
2019-04-06T03:57:13.150Z,32.13
2019-04-06T03:57:36.777Z,32.40
2019-04-06T03:58:12.233Z,32.87
2019-04-06T03:58:48.048Z,31.17
2019-04-06T03:59:23.843Z,30.47
2019-04-06T03:59:59.420Z,31.07
2019-04-06T04:00:34.862Z,30.43
2019-04-06T04:01:10.286Z,32.07
2019-04-06T04:01:45.703Z,30.13
2019-04-06T04:02:21.158Z,32.03
2019-04-06T04:02:56.638Z,31.77
2019-04-06T04:03:32.064Z,31.17
2019-04-06T04:04:07.890Z,30.17
2019-04-06T04:04:43.778Z,30.33
2019-04-06T04:05:19.205Z,30.40
2019-04-06T04:05:54.760Z,29.77
2019-04-06T04:06:30.291Z,29.80
2019-04-06T04:07:05.698Z,31.07
2019-04-06T04:07:41.113Z,30.60
2019-04-06T04:08:16.612Z,30.40
2019-04-06T04:08:52.070Z,30.20
2019-04-06T04:09:27.650Z,31.00
2019-04-06T04:10:03.456Z,30.70
2019-04-06T04:10:41.613Z,29.13
2019-04-06T04:11:16.988Z,29.57
2019-04-06T04:11:52.652Z,30.83
2019-04-06T04:12:28.191Z,31.20
2019-04-06T04:13:03.612Z,30.43
2019-04-06T04:13:39.047Z,30.10
2019-04-06T04:14:14.770Z,32.20
2019-04-06T04:14:50.521Z,31.23
2019-04-06T04:15:25.950Z,31.57
2019-04-06T04:16:01.455Z,30.13
2019-04-06T04:16:37.250Z,30.70
2019-04-06T04:17:12.928Z,30.67
2019-04-06T04:17:48.465Z,31.03
2019-04-06T04:18:23.967Z,30.73
2019-04-06T04:18:59.531Z,31.07
2019-04-06T04:19:35.264Z,31.50
2019-04-06T04:20:11.018Z,31.60
2019-04-06T04:20:46.426Z,30.73
2019-04-06T04:21:21.932Z,32.20
2019-04-06T04:21:57.511Z,33.43
2019-04-06T04:22:35.194Z,31.17
2019-04-06T04:23:10.510Z,30.83
2019-04-06T04:23:46.098Z,31.17
2019-04-06T04:24:21.735Z,32.67
2019-04-06T04:24:57.452Z,32.43
2019-04-06T04:25:32.933Z,31.63
2019-04-06T04:26:08.348Z,30.10
2019-04-06T04:26:44.363Z,32.07
2019-04-06T04:27:28.392Z,32.10
2019-04-06T04:27:57.312Z,32.37
2019-04-06T04:28:33.316Z,32.53
2019-04-06T04:29:09.155Z,32.00
2019-04-06T04:29:44.732Z,31.17
2019-04-06T04:30:32.541Z,31.13
2019-04-06T04:30:57.845Z,30.47
2019-04-06T04:31:33.809Z,31.33
2019-04-06T04:32:09.324Z,30.73
2019-04-06T04:32:44.771Z,31.83
2019-04-06T04:33:20.306Z,31.77
2019-04-06T04:33:56.168Z,31.00
2019-04-06T04:34:31.613Z,31.43
2019-04-06T04:35:07.058Z,31.63
2019-04-06T04:35:42.539Z,32.13
2019-04-06T04:36:18.350Z,32.47
2019-04-06T04:36:53.861Z,30.87
2019-04-06T04:37:29.302Z,31.83
2019-04-06T04:38:04.723Z,32.93
2019-04-06T04:38:40.422Z,30.90
2019-04-06T04:39:15.943Z,30.87
2019-04-06T04:39:51.389Z,31.57
2019-04-06T04:40:26.916Z,31.87
2019-04-06T04:41:02.424Z,31.63
2019-04-06T04:41:39.910Z,32.67
2019-04-06T04:42:15.006Z,32.93
2019-04-06T04:42:50.424Z,31.97
2019-04-06T04:43:25.909Z,31.27
2019-04-06T04:44:01.803Z,31.47
2019-04-06T04:44:37.684Z,32.17
2019-04-06T04:45:13.626Z,31.73
2019-04-06T04:45:49.467Z,31.83
2019-04-06T04:46:24.926Z,30.47
2019-04-06T04:47:00.830Z,30.87
2019-04-06T04:47:36.285Z,29.67
2019-04-06T04:48:11.770Z,30.73
2019-04-06T04:48:47.237Z,30.50
2019-04-06T04:49:22.812Z,30.60
2019-04-06T04:49:58.329Z,31.63
2019-04-06T04:50:33.745Z,31.57
2019-04-06T04:51:09.178Z,30.27
2019-04-06T04:51:44.932Z,30.83
2019-04-06T04:52:20.348Z,30.10
2019-04-06T04:52:55.856Z,30.27
2019-04-06T04:53:31.826Z,30.93
2019-04-06T04:54:07.275Z,29.73
2019-04-06T04:54:42.708Z,31.83
2019-04-06T04:55:18.444Z,30.10
2019-04-06T04:55:54.621Z,29.43
2019-04-06T04:56:30.104Z,31.20
2019-04-06T04:57:06.031Z,30.90
2019-04-06T04:57:44.889Z,30.93
2019-04-06T04:58:19.003Z,30.13
2019-04-06T04:58:54.503Z,30.57
2019-04-06T04:59:29.995Z,31.07
2019-04-06T05:00:05.987Z,28.87
2019-04-06T05:00:41.739Z,30.47
2019-04-06T05:01:17.233Z,29.57
2019-04-06T05:01:52.802Z,29.97
2019-04-06T05:02:28.401Z,30.67
2019-04-06T05:03:03.929Z,29.87
2019-04-06T05:03:40.030Z,31.13
2019-04-06T05:04:15.628Z,30.50
2019-04-06T05:04:51.071Z,30.93
2019-04-06T05:05:26.997Z,30.67
2019-04-06T05:06:02.559Z,30.43
2019-04-06T05:06:37.973Z,30.43
2019-04-06T05:07:13.787Z,31.10
2019-04-06T05:07:49.451Z,28.60
2019-04-06T05:08:24.906Z,29.83
2019-04-06T05:09:00.504Z,31.30
2019-04-06T05:09:35.912Z,31.37
2019-04-06T05:10:11.750Z,31.77
2019-04-06T05:10:47.167Z,29.70
2019-04-06T05:11:23.062Z,30.23
2019-04-06T05:11:58.915Z,30.20
2019-04-06T05:12:34.890Z,29.80
2019-04-06T05:13:10.314Z,31.40
2019-04-06T05:13:45.805Z,31.50
2019-04-06T05:14:58.590Z,30.77
2019-04-06T05:15:52.989Z,28.13
2019-04-06T05:16:28.431Z,27.67
2019-04-06T05:17:03.842Z,29.97
2019-04-06T05:17:39.263Z,30.57
2019-04-06T05:18:14.691Z,29.90
2019-04-06T05:18:50.537Z,31.30
2019-04-06T05:19:26.464Z,30.03
2019-04-06T05:20:01.932Z,30.50
2019-04-06T05:20:37.369Z,30.23
2019-04-06T05:21:13.611Z,29.03
2019-04-06T05:21:49.163Z,30.93
2019-04-06T05:22:24.868Z,29.93
2019-04-06T05:23:00.717Z,30.00
2019-04-06T05:23:36.486Z,30.77
2019-04-06T05:24:12.397Z,29.53
2019-04-06T05:24:48.228Z,30.07
2019-04-06T05:25:23.756Z,30.07
2019-04-06T05:25:59.658Z,29.17
2019-04-06T05:26:37.929Z,28.00
2019-04-06T05:27:13.053Z,28.83
2019-04-06T05:27:52.220Z,29.30
2019-04-06T05:28:26.157Z,28.73
2019-04-06T05:29:02.377Z,29.77
2019-04-06T05:29:37.931Z,28.67
2019-04-06T05:30:14.668Z,29.43
2019-04-06T05:30:50.481Z,28.20
2019-04-06T05:31:26.463Z,27.73
2019-04-06T05:32:02.327Z,28.07
2019-04-06T05:32:37.782Z,28.50
2019-04-06T05:33:13.251Z,29.00
2019-04-06T05:33:49.248Z,28.70
2019-04-06T05:34:24.817Z,29.63
2019-04-06T05:35:00.278Z,28.57
2019-04-06T05:35:36.141Z,29.47
2019-04-06T05:36:12.305Z,29.43
2019-04-06T05:36:47.745Z,29.33
2019-04-06T05:37:23.540Z,29.77
2019-04-06T05:37:59.382Z,29.10
2019-04-06T05:38:34.852Z,28.00
2019-04-06T05:39:10.316Z,28.67
2019-04-06T05:39:45.864Z,29.80
2019-04-06T05:40:21.304Z,30.03
2019-04-06T05:40:56.757Z,29.27
2019-04-06T05:41:32.584Z,30.80
2019-04-06T05:42:08.120Z,29.23
2019-04-06T05:42:43.822Z,27.87
2019-04-06T05:43:19.271Z,29.67
2019-04-06T05:43:54.808Z,29.20
2019-04-06T05:44:30.305Z,30.27
2019-04-06T05:45:06.835Z,29.40
2019-04-06T05:45:42.664Z,29.03
2019-04-06T05:46:18.038Z,29.67
2019-04-06T05:46:53.577Z,29.03
2019-04-06T05:47:29.107Z,30.30
2019-04-06T05:48:04.966Z,29.63
2019-04-06T05:48:41.013Z,28.43
2019-04-06T05:49:16.502Z,28.13
2019-04-06T05:49:52.282Z,28.80
2019-04-06T05:50:27.802Z,28.13
2019-04-06T05:51:03.828Z,28.70
2019-04-06T05:51:39.419Z,27.97
2019-04-06T05:52:14.839Z,27.47
2019-04-06T05:52:50.855Z,29.07
2019-04-06T05:53:26.649Z,27.10
2019-04-06T05:54:02.462Z,28.60
2019-04-06T05:54:38.682Z,27.50
2019-04-06T05:55:14.577Z,27.13
2019-04-06T05:55:50.333Z,27.03
2019-04-06T05:56:26.281Z,28.60
2019-04-06T05:57:01.738Z,26.57
2019-04-06T05:57:38.055Z,28.37
2019-04-06T05:58:14.279Z,28.63
2019-04-06T05:58:50.420Z,28.63
2019-04-06T05:59:26.488Z,27.70
2019-04-06T06:00:02.391Z,28.70
2019-04-06T06:00:39.940Z,27.97
2019-04-06T06:01:16.342Z,29.13
2019-04-06T06:01:52.529Z,28.87
2019-04-06T06:02:28.396Z,28.10
2019-04-06T06:03:04.020Z,29.20
2019-04-06T06:03:40.919Z,28.43
2019-04-06T06:04:17.884Z,27.97
2019-04-06T06:04:53.812Z,29.23
2019-04-06T06:05:29.365Z,29.67
2019-04-06T06:06:04.972Z,28.70
2019-04-06T06:06:40.495Z,29.90
2019-04-06T06:07:15.976Z,29.07
2019-04-06T06:07:51.494Z,29.47
2019-04-06T06:08:26.946Z,29.27
2019-04-06T06:09:02.504Z,28.37
2019-04-06T06:09:38.280Z,29.77
2019-04-06T06:10:13.828Z,29.10
2019-04-06T06:10:49.606Z,29.90
2019-04-06T06:11:25.603Z,28.57
2019-04-06T06:12:01.473Z,29.70
2019-04-06T06:12:36.899Z,29.87
2019-04-06T06:13:12.388Z,28.77
2019-04-06T06:13:47.814Z,28.87
2019-04-06T06:14:23.301Z,28.13
2019-04-06T06:14:58.742Z,29.73
2019-04-06T06:15:34.195Z,27.90
2019-04-06T06:16:11.622Z,28.77
2019-04-06T06:16:47.139Z,30.03
2019-04-06T06:17:22.577Z,28.20
2019-04-06T06:17:58.613Z,29.07
2019-04-06T06:18:34.083Z,28.97
2019-04-06T06:19:09.513Z,28.50
2019-04-06T06:19:45.250Z,28.53
2019-04-06T06:20:20.674Z,28.37
2019-04-06T06:20:56.155Z,28.73
2019-04-06T06:21:31.646Z,28.07
2019-04-06T06:22:07.437Z,28.73
2019-04-06T06:22:43.149Z,29.93
2019-04-06T06:23:18.561Z,28.77
2019-04-06T06:23:54.318Z,28.70
2019-04-06T06:24:29.976Z,28.40
2019-04-06T06:25:05.803Z,29.13
2019-04-06T06:25:41.208Z,27.77
2019-04-06T06:26:16.821Z,27.70
2019-04-06T06:26:52.264Z,28.70
2019-04-06T06:27:27.719Z,28.57
2019-04-06T06:28:13.813Z,28.33
2019-04-06T06:28:40.298Z,29.17
2019-04-06T06:29:15.743Z,29.83
2019-04-06T06:29:51.565Z,27.80
2019-04-06T06:30:27.010Z,29.67
2019-04-06T06:31:02.451Z,30.23
2019-04-06T06:31:38.237Z,30.27
2019-04-06T06:32:13.775Z,30.17
2019-04-06T06:32:49.566Z,29.87
2019-04-06T06:33:25.023Z,28.93
2019-04-06T06:34:00.550Z,28.23
2019-04-06T06:34:35.991Z,29.20
2019-04-06T06:35:11.503Z,28.87
2019-04-06T06:35:46.925Z,28.07
2019-04-06T06:36:22.787Z,29.43
2019-04-06T06:36:58.241Z,30.07
2019-04-06T06:37:34.235Z,29.20
2019-04-06T06:38:09.655Z,30.10
2019-04-06T06:38:45.059Z,28.57
2019-04-06T06:39:20.514Z,28.53
2019-04-06T06:39:56.009Z,29.13
2019-04-06T06:40:31.548Z,30.27
2019-04-06T06:41:06.971Z,28.93
2019-04-06T06:41:42.375Z,28.33
2019-04-06T06:42:17.883Z,27.63
2019-04-06T06:42:53.322Z,28.60
2019-04-06T06:43:28.770Z,28.17
2019-04-06T06:44:04.753Z,28.47
2019-04-06T06:44:40.316Z,29.67
2019-04-06T06:45:16.302Z,29.00
2019-04-06T06:45:53.514Z,28.33
2019-04-06T06:46:29.615Z,28.57
2019-04-06T06:47:05.109Z,29.13
2019-04-06T06:47:41.056Z,29.13
2019-04-06T06:48:16.813Z,28.37
2019-04-06T06:48:52.655Z,27.57
2019-04-06T06:49:28.100Z,29.13
2019-04-06T06:50:04.513Z,28.00
2019-04-06T06:50:40.069Z,27.97
2019-04-06T06:51:15.485Z,29.43
2019-04-06T06:51:51.707Z,29.10
2019-04-06T06:52:27.105Z,28.97
2019-04-06T06:53:02.555Z,29.47
2019-04-06T06:53:38.025Z,29.07
2019-04-06T06:54:13.543Z,27.77
2019-04-06T06:54:49.360Z,28.83
2019-04-06T06:55:26.625Z,28.47
2019-04-06T06:56:01.997Z,30.00
2019-04-06T06:56:37.937Z,28.97
2019-04-06T06:57:13.354Z,30.47
2019-04-06T06:57:48.797Z,29.13
2019-04-06T06:58:25.906Z,28.23
2019-04-06T06:59:01.833Z,30.27
2019-04-06T06:59:37.539Z,29.13
2019-04-06T07:00:13.465Z,29.50
2019-04-06T07:00:48.909Z,30.10
2019-04-06T07:01:24.373Z,29.03
2019-04-06T07:02:01.330Z,29.70
2019-04-06T07:02:36.746Z,29.47
2019-04-06T07:03:12.188Z,29.37
2019-04-06T07:03:47.601Z,29.17
2019-04-06T07:04:23.023Z,29.93
2019-04-06T07:04:58.637Z,29.73
2019-04-06T07:05:34.116Z,29.07
2019-04-06T07:06:09.524Z,29.40
2019-04-06T07:06:44.968Z,28.97
2019-04-06T07:07:20.859Z,28.27
2019-04-06T07:07:56.464Z,29.23
2019-04-06T07:08:32.071Z,28.17
2019-04-06T07:09:08.460Z,29.63
2019-04-06T07:09:44.005Z,27.87
2019-04-06T07:10:19.480Z,30.47
2019-04-06T07:10:56.743Z,29.53
2019-04-06T07:11:32.277Z,30.07
2019-04-06T07:12:07.723Z,28.87
2019-04-06T07:12:43.134Z,28.60
2019-04-06T07:13:18.566Z,30.53
2019-04-06T07:13:54.765Z,27.70
2019-04-06T07:14:30.601Z,29.13
2019-04-06T07:15:07.260Z,29.27
2019-04-06T07:15:43.413Z,28.40
2019-04-06T07:16:19.113Z,28.70
2019-04-06T07:16:54.748Z,28.83
2019-04-06T07:17:30.228Z,29.53
2019-04-06T07:18:06.551Z,29.20
2019-04-06T07:18:41.950Z,27.63
2019-04-06T07:19:17.402Z,29.37
2019-04-06T07:19:52.890Z,28.50
2019-04-06T07:20:28.996Z,28.73
2019-04-06T07:21:04.501Z,29.60
2019-04-06T07:21:40.546Z,28.53
2019-04-06T07:22:15.958Z,29.33
2019-04-06T07:22:51.935Z,29.53
2019-04-06T07:23:27.817Z,28.80
2019-04-06T07:24:03.398Z,29.97
2019-04-06T07:24:39.192Z,29.90
2019-04-06T07:25:14.779Z,28.80
2019-04-06T07:25:57.369Z,28.33
2019-04-06T07:26:27.516Z,29.40
2019-04-06T07:27:02.998Z,29.67
2019-04-06T07:27:38.408Z,29.03
2019-04-06T07:28:13.858Z,29.33
2019-04-06T07:28:49.287Z,28.87
2019-04-06T07:29:24.785Z,28.17
2019-04-06T07:30:00.355Z,28.30
2019-04-06T07:30:35.815Z,29.33
2019-04-06T07:31:11.219Z,28.73
2019-04-06T07:31:46.642Z,29.40
2019-04-06T07:32:22.102Z,26.87
2019-04-06T07:32:57.844Z,27.67
2019-04-06T07:33:33.366Z,28.83
2019-04-06T07:34:09.231Z,28.90
2019-04-06T07:34:44.976Z,28.97
2019-04-06T07:35:20.969Z,27.40
2019-04-06T07:35:56.430Z,29.10
2019-04-06T07:36:32.298Z,28.63
2019-04-06T07:37:08.056Z,27.67
2019-04-06T07:37:43.484Z,28.07
2019-04-06T07:38:18.921Z,29.33
2019-04-06T07:38:54.989Z,28.67
2019-04-06T07:39:30.526Z,26.53
2019-04-06T07:40:07.626Z,27.00
2019-04-06T07:40:43.715Z,28.60
2019-04-06T07:41:19.142Z,26.57
2019-04-06T07:41:55.140Z,27.07
2019-04-06T07:42:30.723Z,26.13
2019-04-06T07:43:06.238Z,26.33
2019-04-06T07:43:41.996Z,26.30
2019-04-06T07:44:18.241Z,25.93
2019-04-06T07:44:53.754Z,26.27
2019-04-06T07:45:29.264Z,27.57
2019-04-06T07:46:05.104Z,25.73